Tiempo atmosférico en la estación meteorológica de Arico, Santa Cruz de Tenerife (418 m.)



Fecha
DESCASC
Temp. máxima en grados centígrados (hora)
DESCASC
Temp. mínima en grados centígrados (hora)
DESCASC
Temp. media en grados centígrados
DESCASC
Racha de viento máxima en m/sg (hora)
DESCASC
Velocidad máxima media en intervalos de 10 minutos(hora)
DESCASC
Precipitaciones diarias en mm
DESCASC
Precipitaciones de 00:00 a 06:00 en mm
DESCASC
Precipitaciones de 06:00 a 12:00 en mm
DESCASC
Precipitaciones de 12:00 a 18:00 en mm
DESCASC
Precipitaciones de 18:00 a 24:00 en mm
DESCASC
31-05-2020 21 (11:50) 16.6 (03:00) 18.8 5.28 (12:00) 3.06 (12:40) 0 0 0 0 0
30-05-2020 19.4 (11:40) 17.2 (21:00) 18.3 5.56 (14:40) 3.89 (15:00) 3.6 0 0 1 2.6
28-05-2020 25.7 (15:50) 15.5 (00:00) 20.6 6.39 (13:50) 3.61 (13:10) 0 0 0 0 0
27-05-2020 28.7 (16:00) 14.5 (07:00) 21.6 5.28 (15:30) 3.33 (14:00) 0 0 0 0 0
26-05-2020 28.4 (14:10) 16.9 (00:00) 22.6 5.83 (01:50) 3.61 (01:50) 0 0 0 0 0
25-05-2020 26.8 (12:40) 16 (00:00) 21.4 5.83 (02:00) 4.44 (15:40) 0 0 0 0 0
24-05-2020 29.5 (15:40) 21.2 (23:50) 25.4 11.39 (02:40) 6.67 (02:30) 0 0 0 0 0
23-05-2020 29 (12:20) 17.8 (00:00) 23.4 10.83 (13:40) 7.22 (13:10) 0 0 0 0 0
22-05-2020 24.1 (15:20) 13.4 (00:00) 18.8 12.5 (10:50) 6.94 (09:40) 0 0 0 0 0
21-05-2020 22.5 (14:30) 13.9 (00:00) 18.2 10.28 (17:50) 6.67 (14:00) 0 0 0 0 0
20-05-2020 23.3 (12:50) 15.4 (00:00) 19.3 11.94 (16:00) 7.78 (16:00) 0 0 0 0 0
19-05-2020 23.7 (13:00) 14.1 (07:20) 18.9 9.72 (13:20) 5.83 (12:20) 0 0 0 0 0
18-05-2020 22.3 (14:20) 13.7 (00:00) 18 11.39 (14:00) 6.94 (14:40) 0 0 0 0 0
17-05-2020 21.7 (12:50) 13.3 (00:00) 17.5 10.83 (16:50) 7.22 (17:00) 0 0 0 0 0
16-05-2020 19.4 (14:50) 13.7 (00:00) 16.5 11.11 (19:50) 6.39 (16:30) 0 0 0 0 0
15-05-2020 20.2 (15:50) 13.2 (07:20) 16.7 8.06 (11:00) 4.44 (10:20) 0 0 0 0 0
14-05-2020 20.8 (14:40) 13.8 (00:00) 17.3 9.44 (12:10) 6.11 (12:10) 0 0 0 0 0
13-05-2020 22.2 (13:10) 14.9 (00:00) 18.6 8.89 (13:10) 5.56 (13:10) 0 0 0 0 0
12-05-2020 20.5 (10:40) 15.2 (23:00) 17.8 8.61 (08:30) 5.28 (03:10) 0 0 0 0 0
11-05-2020 22.8 (17:00) 15.6 (00:00) 19.2 8.33 (14:50) 5.28 (15:00) 0 0 0 0 0
10-05-2020 22.7 (15:40) 14.9 (00:00) 18.8 8.33 (15:50) 4.72 (16:00) 0 0 0 0 0
09-05-2020 23.4 (13:40) 13.9 (07:20) 18.6 7.22 (15:30) 5 (03:00) 0 0 0 0 0
08-05-2020 21.7 (15:40) 13.5 (00:00) 17.6 5.28 (23:40) 3.89 (23:40) 0 0 0 0 0
07-05-2020 20.2 (11:00) 13.7 (00:00) 17 6.39 (12:00) 4.17 (18:40) 4.2 1.2 0 3 0
06-05-2020 20.4 (13:30) 14.1 (00:00) 17.3 9.17 (14:10) 5.56 (14:10) 1.2 0 0 0 1.2
05-05-2020 22.2 (14:20) 13.2 (00:00) 17.7 10.56 (15:20) 6.39 (15:20) 0 0 0 0 0
04-05-2020 21.1 (10:00) 15 (00:00) 18.1 5.56 (10:10) 3.61 (16:00) 1.6 0 0 1.2 0.4
03-05-2020 27.9 (16:50) 13 (05:20) 20.4 8.06 (14:10) 5 (17:40) 0 0 0 0 0

Gráficas

Temp. máximas Temp. mínimas Temp. medias Precipitaciones Rachas de viento máximas Velocidades máximas media en intervalos de 10 minutos

Datos horarios

Fecha y hora oficial Temperatura (ºC) Velocidad del viento (km/h) Dirección del viento Racha (km/h) Dirección de racha Precipitación (mm) Presión (hPa) Tendencia (hPa) Humedad (%)
2020-06-01 23:00:00 17.2 4 Oeste 7 Sur 0 -- -- 89
2020-06-01 22:00:00 17.9 5 Sur 7 Sur 0 -- -- 85
2020-06-01 21:00:00 18.8 3 Sudeste 17 Nordeste 0 -- -- 82
2020-06-01 20:00:00 20.5 11 Nordeste 22 Nordeste 0 -- -- 74
2020-06-01 19:00:00 23.2 14 Este 31 Sudeste 0 -- -- 61
2020-06-01 18:00:00 24.5 18 Sur 34 Sudeste 0 -- -- 50
2020-06-01 17:00:00 25.5 15 Sudeste 28 Sur 0 -- -- 44
2020-06-01 16:00:00 23.9 16 Nordeste 27 Nordeste 0 -- -- 60
2020-06-01 15:00:00 22.5 9 Sudeste 22 Sudeste 0 -- -- 66
2020-06-01 14:00:00 20.6 12 Sur 23 Sur 0 -- -- 78
2020-06-01 13:00:00 20.2 9 Sudoeste 21 Sudoeste 0 -- -- 73
2020-06-01 12:00:00 19.2 11 Sudoeste 18 Sudoeste 0 -- -- 81
2020-06-01 11:00:00 18.8 8 Sur 15 Sudoeste 0 -- -- 87
2020-06-01 10:00:00 18.8 6 Sur 12 Sur 0 -- -- 86
2020-06-01 09:00:00 18 5 Sudeste 9 Oeste 0 -- -- 91
2020-06-01 08:00:00 17 4 Oeste 8 Oeste 0 -- -- 83
2020-06-01 07:00:00 16.8 2 Sur 14 Oeste 0 -- -- 80
2020-06-01 06:00:00 16.6 9 Oeste 13 Oeste 0 -- -- 79
2020-06-01 05:00:00 16.5 4 Oeste 9 Noroeste 0 -- -- 85
2020-06-01 04:00:00 17.4 3 Sur 9 Sudoeste 0 -- -- 93
2020-06-01 03:00:00 17.3 2 Sur 5 Sudoeste 0 -- -- 95
2020-06-01 02:00:00 16.8 0 Calma 10 Oeste 0 -- -- 94
2020-06-01 01:00:00 16.5 8 Oeste 14 Sudoeste 0 -- -- 92
2020-06-01 00:00:00 17.1 3 Noroeste 15 Sudoeste 0 -- -- 93
2020-05-31 23:00:00 17.8 7 Sudoeste 12 Sudoeste 0 -- -- 92
2020-05-31 22:00:00 18.1 3 Sur 7 Sur 0 -- -- 90
2020-05-31 21:00:00 18.6 5 Sur 12 Sudeste 0 -- -- 84
2020-05-31 20:00:00 19.1 7 Sur 12 Sudeste 0 -- -- 81
2020-05-31 19:00:00 19.3 6 Sur 10 Sur 0 -- -- 80
2020-05-31 18:00:00 19.3 3 Sur 15 Sudeste 0 -- -- 79
2020-05-31 17:00:00 19.3 8 Sudeste 14 Sudeste 0 -- -- 79
2020-05-31 16:00:00 19.8 8 Sur 16 Sudeste 0 -- -- 79
2020-05-31 15:00:00 19.4 8 Sudeste 17 Sudeste 0 -- -- 81
2020-05-31 14:00:00 19.1 8 Sur 13 Sur 0 -- -- 84
2020-05-31 13:00:00 19.5 10 Sudeste 18 Sudeste 0 -- -- 80
2020-05-31 12:00:00 20.6 10 Sudeste 19 Sudeste 0 -- -- 75
2020-05-31 11:00:00 19.8 5 Sudoeste 12 Sur 0 -- -- 77
2020-05-31 10:00:00 19.1 4 Sur 8 Sur 0 -- -- 80
2020-05-31 09:00:00 18.7 0 Calma 9 Nordeste 0 -- -- 81
2020-05-31 08:00:00 18 3 Norte 8 Sudoeste 0 -- -- 83
2020-05-31 07:00:00 16.9 4 Noroeste 6 Noroeste 0 -- -- 86
2020-05-31 06:00:00 16.7 0 Calma 7 Noroeste 0 -- -- 89
2020-05-31 05:00:00 16.7 2 Oeste 6 Noroeste 0 -- -- 87
2020-05-31 04:00:00 16.8 0 Calma 8 Norte 0 -- -- 87
2020-05-31 03:00:00 16.6 5 Norte 9 Nordeste 0 -- -- 88
2020-05-31 02:00:00 17 7 Oeste 12 Sudoeste 0 -- -- 83
2020-05-31 01:00:00 17.2 6 Oeste 16 Oeste 0 -- -- 91
2020-05-31 00:00:00 17.2 9 Sudoeste 17 Oeste 0 -- -- 92
2020-05-30 23:00:00 17.3 9 Sudoeste 12 Sudoeste 0 -- -- 94
2020-05-30 22:00:00 17.3 6 Sudoeste 9 Sudoeste 0 -- -- 93
2020-05-30 21:00:00 17.2 4 Sudoeste 8 Sudoeste 0.2 -- -- 93
2020-05-30 20:00:00 17.5 2 Sudeste 10 Este 0.4 -- -- 95
2020-05-30 19:00:00 17.4 4 Este 8 Este 2 -- -- 95
2020-05-30 18:00:00 17.5 5 Este 13 Este 0.8 -- -- 95
2020-05-30 17:00:00 17.7 8 Este 18 Este 0.2 -- -- 93
2020-05-30 16:00:00 17.8 11 Nordeste 19 Este 0 -- -- 91
2020-05-30 15:00:00 18 14 Este 20 Este 0 -- -- 89
2020-05-30 14:00:00 18.7 8 Este 19 Este 0 -- -- 81
2020-05-30 13:00:00 18.8 11 Este 17 Este 0 -- -- 83
2020-05-30 12:00:00 19.2 8 Este 14 Este 0 -- -- 79
2020-05-30 11:00:00 19 4 Sur 9 Este 0 -- -- 76
2020-05-30 10:00:00 18.6 3 Sudeste 11 Sudeste 0 -- -- 77
2020-05-30 09:00:00 18.3 6 Este 10 Este 0 -- -- 78
2020-05-30 08:00:00 17.5 3 Sudeste 11 Este 0 -- -- 84
2020-05-30 07:00:00 17.4 4 Este 9 Este 0 -- -- 84
2020-05-30 06:00:00 17.4 4 Este 12 Este 0 -- -- 87
2020-05-30 05:00:00 17.5 5 Este 16 Este 0 -- -- 88
2020-05-30 04:00:00 17.9 6 Sudeste 11 Sudeste 0 -- -- 86
2020-05-30 03:00:00 18.1 7 Sudoeste 14 Sudoeste 0 -- -- 80
2020-05-30 02:00:00 18.2 9 Sur 14 Sur 0 -- -- 82
2020-05-30 01:00:00 18.4 9 Sur 15 Sudoeste 0 -- -- 81
2020-05-30 00:00:00 18.5 10 Sudoeste 19 Sur 0 -- -- 83
2020-05-29 23:00:00 18.5 14 Sur 19 Sur 0 -- -- 82
2020-05-29 22:00:00 18.7 12 Sur 18 Sur 0 -- -- 83
2020-05-29 21:00:00 19 11 Sur 21 Sudoeste 0 -- -- 82
2020-05-29 20:00:00 19.9 13 Sur 22 Sur 0 -- -- 78
2020-05-29 19:00:00 21 15 Sur 22 Sur 0 -- -- 73
2020-05-29 18:00:00 22.7 10 Sudeste 18 Sudeste 0 -- -- 68
2020-05-29 17:00:00 23.7 9 Sudeste 21 Este 0 -- -- 64
2020-05-29 16:00:00 24.1 11 Sudeste 24 Sur 0 -- -- 63
2020-05-29 15:00:00 24.2 13 Sudeste 23 Sudeste 0 -- -- 62
2020-05-29 14:00:00 24.8 11 Este 21 Sudeste 0 -- -- 60
2020-05-29 13:00:00 24.3 10 Sur 26 Sur 0 -- -- 61
2020-05-29 12:00:00 23 12 Sudeste 27 Sur 0 -- -- 66
2020-05-29 11:00:00 21.2 17 Sur 25 Sudoeste 0 -- -- 73
2020-05-29 10:00:00 19.3 9 Sur 14 Sudeste 0 -- -- 79
2020-05-29 09:00:00 17.5 7 Sur 22 Sudoeste 0 -- -- 86
2020-05-29 08:00:00 16.2 12 Sudoeste 22 Sudoeste 0 -- -- 91
2020-05-29 07:00:00 16.2 6 Oeste 10 Noroeste 0 -- -- 93
2020-05-29 06:00:00 16.2 5 Noroeste 9 Norte 0 -- -- 92
2020-05-29 05:00:00 16.7 3 Nordeste 9 Sudoeste 0 -- -- 90
2020-05-29 04:00:00 16.8 4 Sur 8 Nordeste 0 -- -- 92
2020-05-29 03:00:00 16.6 4 Noroeste 9 Noroeste 0 -- -- 93
2020-05-29 02:00:00 16.8 5 Noroeste 8 Noroeste 0 -- -- 93
2020-05-29 01:00:00 17 2 Nordeste 6 Norte 0 -- -- 94
2020-05-29 00:00:00 16.9 2 Este 5 Norte 0 -- -- 92
2020-05-28 23:00:00 17.7 4 Nordeste 9 Nordeste 0 -- -- 91
2020-05-28 22:00:00 17.9 5 Nordeste 7 Nordeste 0 -- -- 91
2020-05-28 21:00:00 18.6 4 Este 8 Sudeste 0 -- -- 85
2020-05-28 20:00:00 20.2 4 Sudeste 12 Este 0 -- -- 78
2020-05-28 19:00:00 21.8 9 Nordeste 16 Este 0 -- -- 71
2020-05-28 18:00:00 23.2 9 Este 17 Nordeste 0 -- -- 67
2020-05-28 17:00:00 25 9 Sudeste 16 Sudeste 0 -- -- 62
2020-05-28 16:00:00 25.7 8 Este 18 Nordeste 0 -- -- 59
2020-05-28 15:00:00 24.7 9 Nordeste 19 Nordeste 0 -- -- 62
2020-05-28 14:00:00 24.8 10 Este 23 Este 0 -- -- 62
2020-05-28 13:00:00 24.3 12 Nordeste 18 Nordeste 0 -- -- 64
2020-05-28 12:00:00 23.7 11 Este 18 Nordeste 0 -- -- 67
2020-05-28 11:00:00 22.5 10 Este 14 Nordeste 0 -- -- 71
2020-05-28 10:00:00 21.1 7 Este 13 Nordeste 0 -- -- 76
2020-05-28 09:00:00 17.1 2 Noroeste 5 Norte 0 -- -- 94
2020-05-28 08:00:00 15.8 0 Calma 6 Noroeste 0 -- -- 96
2020-05-28 07:00:00 15.5 4 Nordeste 7 Nordeste 0 -- -- 95
2020-05-28 06:00:00 16.2 4 Norte 15 Noroeste 0 -- -- 90
2020-05-28 05:00:00 16.9 2 Sudeste 7 Sudeste 0 -- -- 86
2020-05-28 04:00:00 17.4 3 Sur 8 Sudoeste 0 -- -- 59
2020-05-28 03:00:00 16.4 4 Sudoeste 7 Sur 0 -- -- 93
2020-05-28 02:00:00 17.9 2 Sudeste 7 Nordeste 0 -- -- 80
2020-05-28 01:00:00 19.2 3 Nordeste 8 Nordeste 0 -- -- 51
2020-05-28 00:00:00 20.1 3 Noroeste 6 Noroeste 0 -- -- 54
2020-05-27 23:00:00 19.6 2 Sudeste 6 Nordeste 0 -- -- 55
2020-05-27 22:00:00 20.1 0 Calma 5 Oeste 0 -- -- 76
2020-05-27 21:00:00 21.9 2 Oeste 6 Norte 0 -- -- 62
2020-05-27 20:00:00 22.9 2 Norte 11 Este 0 -- -- 69
2020-05-27 19:00:00 23.8 6 Este 13 Nordeste 0 -- -- 66
2020-05-27 18:00:00 26 8 Este 13 Este 0 -- -- 59
2020-05-27 17:00:00 27.5 8 Este 17 Nordeste 0 -- -- 50
2020-05-27 16:00:00 28.7 8 Este 19 Este 0 -- -- 44
2020-05-27 15:00:00 26.7 11 Este 19 Este 0 -- -- 54
2020-05-27 14:00:00 26.5 12 Este 18 Este 0 -- -- 55
2020-05-27 13:00:00 25.7 9 Este 17 Nordeste 0 -- -- 59
2020-05-27 12:00:00 24.3 10 Nordeste 15 Este 0 -- -- 64
2020-05-27 11:00:00 22.8 7 Nordeste 13 Este 0 -- -- 71
2020-05-27 10:00:00 21 8 Nordeste 12 Este 0 -- -- 79
2020-05-27 09:00:00 18 5 Nordeste 11 Nordeste 0 -- -- 90
2020-05-27 08:00:00 15.8 2 Norte 8 Este 0 -- -- 99
2020-05-27 07:00:00 14.5 2 Nordeste 10 Nordeste 0 -- -- 98
2020-05-27 06:00:00 15.2 6 Norte 10 Nordeste 0 -- -- 98
2020-05-27 05:00:00 15.1 6 Norte 11 Nordeste 0 -- -- 97
2020-05-27 04:00:00 15.4 4 Nordeste 12 Este 0 -- -- 97
2020-05-27 03:00:00 15.7 8 Norte 12 Norte 0 -- -- 98
2020-05-27 02:00:00 16 5 Norte 11 Noroeste 0 -- -- 96
2020-05-27 01:00:00 16.4 0 Calma 12 Noroeste 0 -- -- 93
2020-05-27 00:00:00 17.4 6 Norte 12 Noroeste 0 -- -- 89
2020-05-26 23:00:00 17.5 5 Nordeste 9 Noroeste 0 -- -- 90
2020-05-26 22:00:00 18 5 Nordeste 8 Nordeste 0 -- -- 90
2020-05-26 21:00:00 19.2 5 Nordeste 8 Este 0 -- -- 85
2020-05-26 20:00:00 21.8 5 Nordeste 12 Nordeste 0 -- -- 74
2020-05-26 19:00:00 23.5 8 Este 14 Nordeste 0 -- -- 67
2020-05-26 18:00:00 25.2 10 Este 18 Nordeste 0 -- -- 62
2020-05-26 17:00:00 27.4 8 Este 15 Nordeste 0 -- -- 55
2020-05-26 16:00:00 28 10 Nordeste 18 Este 0 -- -- 54
2020-05-26 15:00:00 28.4 9 Este 15 Este 0 -- -- 52
2020-05-26 14:00:00 28 8 Nordeste 15 Este 0 -- -- 54
2020-05-26 13:00:00 26.9 9 Nordeste 15 Nordeste 0 -- -- 57
2020-05-26 12:00:00 26.5 9 Nordeste 14 Este 0 -- -- 59
2020-05-26 11:00:00 25.7 6 Nordeste 10 Nordeste 0 -- -- 59
2020-05-26 10:00:00 22.7 7 Nordeste 11 Este 0 -- -- 71
2020-05-26 09:00:00 20.5 5 Nordeste 10 Nordeste 0 -- -- 78
2020-05-26 08:00:00 19.3 5 Norte 14 Nordeste 0 -- -- 71
2020-05-26 07:00:00 17.4 6 Nordeste 12 Norte 0 -- -- 86
2020-05-26 06:00:00 19.9 8 Nordeste 12 Nordeste 0 -- -- 54
2020-05-26 05:00:00 22.8 7 Norte 18 Norte 0 -- -- 26
2020-05-26 04:00:00 24.5 9 Norte 18 Nordeste 0 -- -- 22
2020-05-26 03:00:00 23.9 7 Norte 17 Norte 0 -- -- 23
2020-05-26 02:00:00 23.6 10 Norte 21 Nordeste 0 -- -- 27
2020-05-26 01:00:00 22.2 9 Norte 15 Norte 0 -- -- 33
2020-05-26 00:00:00 22.1 7 Norte 14 Nordeste 0 -- -- 38
2020-05-25 23:00:00 21.9 9 Nordeste 16 Norte 0 -- -- 40
2020-05-25 22:00:00 21.6 9 Norte 17 Norte 0 -- -- 47
2020-05-25 21:00:00 21.8 9 Norte 15 Norte 0 -- -- 56
2020-05-25 20:00:00 22.5 6 Nordeste 9 Nordeste 0 -- -- 72
2020-05-25 19:00:00 23.4 8 Este 16 Este 0 -- -- 69
2020-05-25 18:00:00 24.6 11 Nordeste 18 Nordeste 0 -- -- 65
2020-05-25 17:00:00 25.8 11 Este 18 Este 0 -- -- 61
2020-05-25 16:00:00 25.5 12 Nordeste 21 Este 0 -- -- 62
2020-05-25 15:00:00 26 12 Nordeste 20 Este 0 -- -- 61
2020-05-25 14:00:00 26.3 13 Nordeste 20 Nordeste 0 -- -- 59
2020-05-25 13:00:00 26.4 14 Este 19 Este 0 -- -- 59
2020-05-25 12:00:00 24.9 12 Nordeste 18 Este 0 -- -- 64
2020-05-25 11:00:00 24.5 11 Nordeste 18 Nordeste 0 -- -- 65
2020-05-25 10:00:00 23.5 10 Nordeste 15 Nordeste 0 -- -- 69
2020-05-25 09:00:00 20.7 8 Norte 16 Norte 0 -- -- 68
2020-05-25 08:00:00 16.3 11 Norte 17 Nordeste 0 -- -- 97
2020-05-25 07:00:00 16.4 8 Nordeste 15 Nordeste 0 -- -- 96
2020-05-25 06:00:00 16.5 8 Nordeste 18 Nordeste 0 -- -- 94
2020-05-25 05:00:00 16.8 11 Nordeste 16 Nordeste 0 -- -- 93
2020-05-25 04:00:00 18.8 9 Nordeste 19 Nordeste 0 -- -- 79
2020-05-25 03:00:00 21.7 10 Nordeste 18 Nordeste 0 -- -- 52
2020-05-25 02:00:00 22.5 10 Norte 21 Norte 0 -- -- 40
2020-05-25 01:00:00 22.8 8 Norte 18 Norte 0 -- -- 31
2020-05-25 00:00:00 21.3 9 Norte 17 Nordeste 0 -- -- 41
2020-05-24 23:00:00 23.7 9 Norte 21 Nordeste 0 -- -- 34
2020-05-24 22:00:00 23.6 9 Norte 21 Nordeste 0 -- -- 39
2020-05-24 21:00:00 24 10 Norte 19 Nordeste 0 -- -- 39
2020-05-24 20:00:00 23.9 4 Nordeste 12 Norte 0 -- -- 66
2020-05-24 19:00:00 25.8 10 Nordeste 26 Nordeste 0 -- -- 58
2020-05-24 18:00:00 26.1 10 Nordeste 19 Nordeste 0 -- -- 51
2020-05-24 17:00:00 25.4 12 Nordeste 29 Este 0 -- -- 63
2020-05-24 16:00:00 29 12 Este 38 Nordeste 0 -- -- 46
2020-05-24 15:00:00 28.2 21 Nordeste 33 Nordeste 0 -- -- 41
2020-05-24 14:00:00 26.7 19 Nordeste 32 Nordeste 0 -- -- 53
2020-05-24 13:00:00 25.1 20 Nordeste 31 Este 0 -- -- 60
2020-05-24 12:00:00 25.1 16 Nordeste 25 Nordeste 0 -- -- 59
2020-05-24 11:00:00 24.7 14 Nordeste 26 Nordeste 0 -- -- 53
2020-05-24 10:00:00 24.8 11 Nordeste 31 Nordeste 0 -- -- 44
2020-05-24 09:00:00 23.5 17 Nordeste 31 Nordeste 0 -- -- 44
2020-05-24 08:00:00 22.9 19 Nordeste 37 Este 0 -- -- 37
2020-05-24 07:00:00 23.1 23 Nordeste 40 Nordeste 0 -- -- 31
2020-05-24 06:00:00 22.7 17 Nordeste 33 Nordeste 0 -- -- 31
2020-05-24 05:00:00 22.4 15 Nordeste 35 Nordeste 0 -- -- 36
2020-05-24 04:00:00 22.6 20 Nordeste 36 Nordeste 0 -- -- 38
2020-05-24 03:00:00 23.5 23 Nordeste 41 Nordeste 0 -- -- 35
2020-05-24 02:00:00 21.7 15 Nordeste 31 Nordeste 0 -- -- 44
2020-05-24 01:00:00 22.6 19 Nordeste 36 Nordeste 0 -- -- 40
2020-05-24 00:00:00 22.5 13 Nordeste 24 Nordeste 0 -- -- 36
2020-05-23 23:00:00 20.6 10 Nordeste 21 Norte 0 -- -- 53
2020-05-23 22:00:00 18.5 7 Norte 15 Nordeste 0 -- -- 81
2020-05-23 21:00:00 19.1 7 Nordeste 12 Este 0 -- -- 81
2020-05-23 20:00:00 20.6 8 Nordeste 17 Nordeste 0 -- -- 78
2020-05-23 19:00:00 22.6 13 Nordeste 19 Nordeste 0 -- -- 70
2020-05-23 18:00:00 23.9 13 Nordeste 24 Este 0 -- -- 65
2020-05-23 17:00:00 25.2 16 Nordeste 28 Nordeste 0 -- -- 60
2020-05-23 16:00:00 27.2 19 Este 32 Nordeste 0 -- -- 49
2020-05-23 15:00:00 28.9 17 Nordeste 36 Nordeste 0 -- -- 42
2020-05-23 14:00:00 28.8 23 Nordeste 39 Nordeste 0 -- -- 37
2020-05-23 13:00:00 28.4 21 Nordeste 39 Nordeste 0 -- -- 40
2020-05-23 12:00:00 28.3 22 Nordeste 37 Nordeste 0 -- -- 40
2020-05-23 11:00:00 27.2 23 Nordeste 37 Este 0 -- -- 41
2020-05-23 10:00:00 25.8 21 Nordeste 36 Nordeste 0 -- -- 46
2020-05-23 09:00:00 21.6 10 Nordeste 21 Norte 0 -- -- 64
2020-05-23 08:00:00 19.3 13 Nordeste 22 Nordeste 0 -- -- 62
2020-05-23 07:00:00 18.6 10 Nordeste 25 Nordeste 0 -- -- 64
2020-05-23 06:00:00 18.5 11 Nordeste 22 Nordeste 0 -- -- 61
2020-05-23 05:00:00 18.2 12 Nordeste 28 Nordeste 0 -- -- 67
2020-05-23 04:00:00 19.1 16 Nordeste 31 Nordeste 0 -- -- 60
2020-05-23 03:00:00 20.2 15 Nordeste 27 Nordeste 0 -- -- 49
2020-05-23 02:00:00 20.2 15 Nordeste 31 Nordeste 0 -- -- 47
2020-05-23 01:00:00 21.2 15 Nordeste 37 Nordeste 0 -- -- 44
2020-05-23 00:00:00 20 15 Nordeste 30 Nordeste 0 -- -- 50
2020-05-22 23:00:00 19.7 18 Nordeste 28 Nordeste 0 -- -- 55
2020-05-22 22:00:00 20 15 Nordeste 28 Nordeste 0 -- -- 55
2020-05-22 21:00:00 19.7 8 Nordeste 27 Nordeste 0 -- -- 53
2020-05-22 20:00:00 20.5 17 Nordeste 28 Nordeste 0 -- -- 59
2020-05-22 19:00:00 22.6 14 Nordeste 26 Nordeste 0 -- -- 56
2020-05-22 18:00:00 23.4 15 Nordeste 28 Nordeste 0 -- -- 57
2020-05-22 17:00:00 24 14 Nordeste 32 Este 0 -- -- 57
2020-05-22 16:00:00 23.6 20 Nordeste 37 Nordeste 0 -- -- 58
2020-05-22 15:00:00 23.6 21 Nordeste 33 Nordeste 0 -- -- 58
2020-05-22 14:00:00 23.3 20 Nordeste 33 Este 0 -- -- 60
2020-05-22 13:00:00 23.3 21 Nordeste 35 Este 0 -- -- 58
2020-05-22 12:00:00 22.5 18 Este 40 Nordeste 0 -- -- 59
2020-05-22 11:00:00 20.2 24 Nordeste 45 Nordeste 0 -- -- 68
2020-05-22 10:00:00 18.6 24 Nordeste 37 Nordeste 0 -- -- 72
2020-05-22 09:00:00 17.5 21 Nordeste 33 Nordeste 0 -- -- 73
2020-05-22 08:00:00 15.3 12 Nordeste 20 Nordeste 0 -- -- 79
2020-05-22 07:00:00 13.4 9 Norte 21 Nordeste 0 -- -- 83
2020-05-22 06:00:00 14.2 15 Nordeste 23 Nordeste 0 -- -- 84
2020-05-22 05:00:00 14.1 16 Nordeste 28 Nordeste 0 -- -- 83
2020-05-22 04:00:00 14.2 14 Nordeste 24 Nordeste 0 -- -- 83
2020-05-22 03:00:00 14 14 Nordeste 26 Nordeste 0 -- -- 85
2020-05-22 02:00:00 14.1 14 Nordeste 24 Nordeste 0 -- -- 84
2020-05-22 01:00:00 14.6 18 Nordeste 29 Nordeste 0 -- -- 84
2020-05-22 00:00:00 14.7 14 Nordeste 26 Nordeste 0 -- -- 85
2020-05-21 23:00:00 15 12 Nordeste 23 Nordeste 0 -- -- 85
2020-05-21 22:00:00 15.5 15 Nordeste 28 Nordeste 0 -- -- 83
2020-05-21 21:00:00 16 19 Nordeste 34 Este 0 -- -- 82
2020-05-21 20:00:00 17.2 18 Nordeste 32 Nordeste 0 -- -- 77
2020-05-21 19:00:00 19.5 15 Nordeste 30 Nordeste 0 -- -- 68
2020-05-21 18:00:00 20.3 18 Nordeste 37 Nordeste 0 -- -- 65
2020-05-21 17:00:00 21.4 21 Nordeste 32 Este 0 -- -- 62
2020-05-21 16:00:00 22.3 19 Nordeste 35 Este 0 -- -- 59
2020-05-21 15:00:00 22.2 22 Nordeste 35 Este 0 -- -- 59
2020-05-21 14:00:00 21.7 24 Nordeste 34 Este 0 -- -- 59
2020-05-21 13:00:00 21.8 22 Nordeste 32 Este 0 -- -- 59
2020-05-21 12:00:00 21.5 19 Nordeste 37 Nordeste 0 -- -- 60
2020-05-21 11:00:00 20.7 17 Nordeste 26 Este 0 -- -- 62
2020-05-21 10:00:00 19.3 15 Nordeste 27 Nordeste 0 -- -- 66
2020-05-21 09:00:00 17.7 18 Nordeste 27 Nordeste 0 -- -- 69
2020-05-21 08:00:00 15.5 10 Nordeste 18 Nordeste 0 -- -- 77
2020-05-21 07:00:00 13.9 9 Norte 21 Nordeste 0 -- -- 80
2020-05-21 06:00:00 14.3 11 Nordeste 21 Norte 0 -- -- 82
2020-05-21 05:00:00 14.4 13 Norte 20 Norte 0 -- -- 80
2020-05-21 04:00:00 14.7 11 Norte 19 Nordeste 0 -- -- 79
2020-05-21 03:00:00 14.9 9 Nordeste 17 Norte 0 -- -- 75
2020-05-21 02:00:00 15.2 11 Norte 19 Nordeste 0 -- -- 72
2020-05-21 01:00:00 15.6 8 Nordeste 17 Nordeste 0 -- -- 76
2020-05-21 00:00:00 16.3 11 Nordeste 21 Nordeste 0 -- -- 65
2020-05-20 23:00:00 17 12 Nordeste 25 Nordeste 0 -- -- 60
2020-05-20 22:00:00 17.6 15 Nordeste 29 Nordeste 0 -- -- 55
2020-05-20 21:00:00 17.8 17 Nordeste 27 Nordeste 0 -- -- 61
2020-05-20 20:00:00 18.7 18 Nordeste 33 Este 0 -- -- 69
2020-05-20 19:00:00 20.1 20 Nordeste 37 Este 0 -- -- 69
2020-05-20 18:00:00 21.7 23 Nordeste 38 Este 0 -- -- 58
2020-05-20 17:00:00 22.2 23 Nordeste 41 Este 0 -- -- 59
2020-05-20 16:00:00 22.5 28 Nordeste 43 Este 0 -- -- 59
2020-05-20 15:00:00 22.7 24 Nordeste 40 Este 0 -- -- 62
2020-05-20 14:00:00 23 26 Nordeste 41 Este 0 -- -- 59
2020-05-20 13:00:00 23.3 21 Nordeste 36 Nordeste 0 -- -- 61
2020-05-20 12:00:00 23.1 19 Nordeste 31 Este 0 -- -- 60
2020-05-20 11:00:00 21.9 19 Nordeste 28 Este 0 -- -- 65
2020-05-20 10:00:00 20.8 17 Nordeste 26 Nordeste 0 -- -- 72
2020-05-20 09:00:00 19.7 16 Nordeste 31 Nordeste 0 -- -- 66
2020-05-20 08:00:00 17.1 8 Norte 15 Nordeste 0 -- -- 68
2020-05-20 07:00:00 15.9 8 Norte 15 Norte 0 -- -- 56
2020-05-20 06:00:00 15.4 6 Noroeste 13 Nordeste 0 -- -- 56
2020-05-20 05:00:00 15.8 9 Norte 15 Norte 0 -- -- 69
2020-05-20 04:00:00 15.8 6 Norte 12 Noroeste 0 -- -- 69
2020-05-20 03:00:00 15.7 4 Norte 17 Noroeste 0 -- -- 74
2020-05-20 02:00:00 15.9 12 Oeste 15 Oeste 0 -- -- 79
2020-05-20 01:00:00 16.7 7 Nordeste 21 Oeste 0 -- -- 75
2020-05-20 00:00:00 16.6 14 Oeste 20 Oeste 0 -- -- 81
2020-05-19 23:00:00 16.5 8 Sudoeste 13 Sudoeste 0 -- -- 81
2020-05-19 22:00:00 17.1 4 Sudoeste 6 Sudoeste 0 -- -- 83
2020-05-19 21:00:00 17.9 3 Sudeste 10 Este 0 -- -- 81
2020-05-19 20:00:00 19.5 7 Este 17 Nordeste 0 -- -- 74
2020-05-19 19:00:00 21.2 9 Este 22 Este 0 -- -- 67
2020-05-19 18:00:00 22 13 Este 23 Este 0 -- -- 64
2020-05-19 17:00:00 23 14 Este 26 Este 0 -- -- 61
2020-05-19 16:00:00 23.2 17 Este 28 Este 0 -- -- 60
2020-05-19 15:00:00 23.2 18 Nordeste 31 Nordeste 0 -- -- 59
2020-05-19 14:00:00 23.6 17 Este 35 Este 0 -- -- 59
2020-05-19 13:00:00 23.7 18 Este 31 Nordeste 0 -- -- 56
2020-05-19 12:00:00 23.3 13 Este 27 Este 0 -- -- 54
2020-05-19 11:00:00 21.7 7 Sudeste 19 Sudoeste 0 -- -- 58
2020-05-19 10:00:00 20 8 Sur 17 Sudeste 0 -- -- 61
2020-05-19 09:00:00 18.1 6 Sudoeste 13 Oeste 0 -- -- 68
2020-05-19 08:00:00 15.9 12 Oeste 16 Oeste 0 -- -- 68
2020-05-19 07:00:00 14.3 9 Oeste 18 Oeste 0 -- -- 72
2020-05-19 06:00:00 14.9 14 Oeste 21 Oeste 0 -- -- 73
2020-05-19 05:00:00 15 14 Oeste 21 Oeste 0 -- -- 69
2020-05-19 04:00:00 14.8 12 Noroeste 17 Noroeste 0 -- -- 75
2020-05-19 03:00:00 14.9 8 Noroeste 12 Noroeste 0 -- -- 75
2020-05-19 02:00:00 15 6 Noroeste 16 Oeste 0 -- -- 72
2020-05-19 01:00:00 14.9 11 Oeste 16 Oeste 0 -- -- 77
2020-05-19 00:00:00 15.3 8 Noroeste 13 Noroeste 0 -- -- 79
2020-05-18 23:00:00 15.6 5 Norte 16 Nordeste 0 -- -- 81
2020-05-18 22:00:00 16.3 12 Nordeste 21 Nordeste 0 -- -- 81
2020-05-18 21:00:00 16.8 5 Este 13 Nordeste 0 -- -- 81
2020-05-18 20:00:00 17.6 13 Nordeste 29 Nordeste 0 -- -- 81
2020-05-18 19:00:00 19 20 Nordeste 39 Nordeste 0 -- -- 76
2020-05-18 18:00:00 19.9 19 Nordeste 35 Nordeste 0 -- -- 70
2020-05-18 17:00:00 20.3 22 Nordeste 35 Nordeste 0 -- -- 70
2020-05-18 16:00:00 21.4 21 Nordeste 37 Este 0 -- -- 66
2020-05-18 15:00:00 22 21 Nordeste 40 Nordeste 0 -- -- 62
2020-05-18 14:00:00 22 22 Nordeste 41 Este 0 -- -- 61
2020-05-18 13:00:00 21.6 23 Nordeste 36 Nordeste 0 -- -- 62
2020-05-18 12:00:00 20.9 22 Nordeste 37 Nordeste 0 -- -- 64
2020-05-18 11:00:00 19.5 20 Nordeste 34 Nordeste 0 -- -- 65
2020-05-18 10:00:00 19 19 Nordeste 33 Nordeste 0 -- -- 66
2020-05-18 09:00:00 17.6 18 Nordeste 30 Nordeste 0 -- -- 69
2020-05-18 08:00:00 14.5 7 Norte 17 Norte 0 -- -- 75
2020-05-18 07:00:00 14.9 9 Nordeste 32 Nordeste 0 -- -- 87
2020-05-18 06:00:00 15.2 19 Nordeste 32 Nordeste 0 -- -- 88
2020-05-18 05:00:00 15.3 16 Nordeste 31 Nordeste 0 -- -- 86
2020-05-18 04:00:00 14.1 9 Norte 22 Nordeste 0 -- -- 77
2020-05-18 03:00:00 14.5 9 Nordeste 30 Nordeste 0 -- -- 67
2020-05-18 02:00:00 14.1 8 Nordeste 23 Nordeste 0 -- -- 72
2020-05-18 01:00:00 13.9 11 Nordeste 22 Nordeste 0 -- -- 74
2020-05-18 00:00:00 14.1 13 Norte 24 Norte 0 -- -- 74
2020-05-17 23:00:00 14.1 6 Norte 21 Nordeste 0 -- -- 74
2020-05-17 22:00:00 14.8 10 Norte 31 Nordeste 0 -- -- 72
2020-05-17 21:00:00 15.7 18 Nordeste 33 Nordeste 0 -- -- 73
2020-05-17 20:00:00 16.4 19 Nordeste 32 Nordeste 0 -- -- 70
2020-05-17 19:00:00 16.9 20 Nordeste 35 Nordeste 0 -- -- 66
2020-05-17 18:00:00 17.1 21 Nordeste 37 Nordeste 0 -- -- 66
2020-05-17 17:00:00 17.2 26 Nordeste 39 Nordeste 0 -- -- 68
2020-05-17 16:00:00 17.9 20 Nordeste 35 Este 0 -- -- 68
2020-05-17 15:00:00 18.6 21 Nordeste 35 Este 0 -- -- 66
2020-05-17 14:00:00 19.2 22 Nordeste 37 Este 0 -- -- 64
2020-05-17 13:00:00 21.3 22 Este 34 Nordeste 0 -- -- 52
2020-05-17 12:00:00 21.6 22 Este 37 Nordeste 0 -- -- 48
2020-05-17 11:00:00 18.6 21 Nordeste 35 Nordeste 0 -- -- 55
2020-05-17 10:00:00 16.8 20 Nordeste 36 Nordeste 0 -- -- 63
2020-05-17 09:00:00 17.5 15 Nordeste 26 Este 0 -- -- 58
2020-05-17 08:00:00 14.3 13 Norte 22 Norte 0 -- -- 61
2020-05-17 07:00:00 13.9 12 Norte 19 Norte 0 -- -- 65
2020-05-17 06:00:00 14.8 11 Nordeste 26 Nordeste 0 -- -- 72
2020-05-17 05:00:00 14.6 10 Norte 17 Norte 0 -- -- 70
2020-05-17 04:00:00 14 8 Norte 18 Norte 0 -- -- 69
2020-05-17 03:00:00 13.8 9 Norte 20 Norte 0 -- -- 69
2020-05-17 02:00:00 13.3 10 Noroeste 16 Noroeste 0 -- -- 71
2020-05-17 01:00:00 14 5 Norte 13 Nordeste 0 -- -- 70
2020-05-17 00:00:00 14.4 4 Nordeste 13 Noroeste 0 -- -- 69
2020-05-16 23:00:00 14.3 8 Noroeste 13 Noroeste 0 -- -- 69
2020-05-16 22:00:00 14.7 5 Oeste 13 Este 0 -- -- 70
2020-05-16 21:00:00 15.7 9 Nordeste 27 Nordeste 0 -- -- 68
2020-05-16 20:00:00 16.3 18 Este 40 Nordeste 0 -- -- 64
2020-05-16 19:00:00 17.3 17 Nordeste 35 Nordeste 0 -- -- 60
2020-05-16 18:00:00 17.8 15 Nordeste 30 Este 0 -- -- 60
2020-05-16 17:00:00 17.8 18 Este 38 Nordeste 0 -- -- 61
2020-05-16 16:00:00 18.1 19 Este 36 Este 0 -- -- 63
2020-05-16 15:00:00 19.4 22 Este 38 Nordeste 0 -- -- 55
2020-05-16 14:00:00 18.4 15 Este 31 Este 0 -- -- 56
2020-05-16 13:00:00 17.7 16 Este 30 Este 0 -- -- 61
2020-05-16 12:00:00 17.9 16 Nordeste 31 Este 0 -- -- 63
2020-05-16 11:00:00 17.4 18 Este 37 Este 0 -- -- 62
2020-05-16 10:00:00 18.3 8 Nordeste 21 Nordeste 0 -- -- 60
2020-05-16 09:00:00 17 4 Nordeste 9 Norte 0 -- -- 64
2020-05-16 08:00:00 15.5 5 Norte 17 Noroeste 0 -- -- 68
2020-05-16 07:00:00 13.8 12 Noroeste 18 Noroeste 0 -- -- 71
2020-05-16 06:00:00 14.3 4 Sudeste 19 Noroeste 0 -- -- 73
2020-05-16 05:00:00 14.6 10 Noroeste 20 Noroeste 0 -- -- 69
2020-05-16 04:00:00 15.1 7 Noroeste 11 Noroeste 0 -- -- 74
2020-05-16 03:00:00 14.9 8 Noroeste 12 Noroeste 0 -- -- 70
2020-05-16 02:00:00 15.1 6 Noroeste 10 Noroeste 0 -- -- 71
2020-05-16 01:00:00 15.3 8 Noroeste 14 Noroeste 0 -- -- 66
2020-05-16 00:00:00 15.5 8 Noroeste 12 Noroeste 0 -- -- 68
2020-05-15 23:00:00 15.5 9 Oeste 16 Noroeste 0 -- -- 69
2020-05-15 22:00:00 16.4 4 Oeste 12 Oeste 0 -- -- 71
2020-05-15 21:00:00 17.2 10 Sudoeste 20 Sudoeste 0 -- -- 70
2020-05-15 20:00:00 18.2 8 Sudoeste 18 Sudoeste 0 -- -- 66
2020-05-15 19:00:00 18.3 11 Sudoeste 22 Sudoeste 0 -- -- 68
2020-05-15 18:00:00 18.2 13 Sudoeste 22 Sur 0 -- -- 68
2020-05-15 17:00:00 18.4 10 Sudeste 22 Sudeste 0 -- -- 66
2020-05-15 16:00:00 19.9 13 Sudeste 26 Sur 0 -- -- 60
2020-05-15 15:00:00 18.5 5 Sudeste 14 Sudeste 0 -- -- 64
2020-05-15 14:00:00 18.4 6 Sudeste 22 Sudeste 0 -- -- 63
2020-05-15 13:00:00 19.4 10 Sudeste 22 Sur 0 -- -- 57
2020-05-15 12:00:00 20.1 14 Sur 25 Sudeste 0 -- -- 53
2020-05-15 11:00:00 20.1 14 Sur 29 Sur 0 -- -- 51
2020-05-15 10:00:00 19 13 Sudoeste 23 Sudeste 0 -- -- 53
2020-05-15 09:00:00 17.3 13 Sudoeste 20 Sudoeste 0 -- -- 58
2020-05-15 08:00:00 15 11 Oeste 19 Oeste 0 -- -- 65
2020-05-15 07:00:00 13.3 8 Noroeste 14 Noroeste 0 -- -- 66
2020-05-15 06:00:00 13.5 6 Noroeste 16 Noroeste 0 -- -- 61
2020-05-15 05:00:00 14.2 13 Oeste 18 Oeste 0 -- -- 68
2020-05-15 04:00:00 14.6 14 Oeste 19 Oeste 0 -- -- 70
2020-05-15 03:00:00 14.8 14 Oeste 17 Oeste 0 -- -- 76
2020-05-15 02:00:00 15.5 9 Oeste 14 Oeste 0 -- -- 74
2020-05-15 01:00:00 16 3 Este 13 Oeste 0 -- -- 71
2020-05-15 00:00:00 16.4 9 Oeste 19 Oeste 0 -- -- 67
2020-05-14 23:00:00 16.2 14 Oeste 18 Oeste 0 -- -- 74
2020-05-14 22:00:00 16.4 7 Oeste 13 Noroeste 0 -- -- 76
2020-05-14 21:00:00 16.5 5 Noroeste 13 Noroeste 0 -- -- 77
2020-05-14 20:00:00 16.8 7 Noroeste 12 Noroeste 0 -- -- 77
2020-05-14 19:00:00 17.3 10 Noroeste 14 Noroeste 0 -- -- 72
2020-05-14 18:00:00 17.6 6 Noroeste 15 Este 0 -- -- 74
2020-05-14 17:00:00 18.4 8 Sudeste 19 Este 0 -- -- 65
2020-05-14 16:00:00 19.5 11 Sudeste 20 Este 0 -- -- 63
2020-05-14 15:00:00 20.5 11 Sudeste 23 Sudeste 0 -- -- 56
2020-05-14 14:00:00 19.6 10 Sudeste 23 Este 0 -- -- 57
2020-05-14 13:00:00 20.1 13 Sudeste 34 Sur 0 -- -- 57
2020-05-14 12:00:00 20.2 17 Sur 32 Sudoeste 0 -- -- 56
2020-05-14 11:00:00 19.9 15 Sur 26 Sur 0 -- -- 58
2020-05-14 10:00:00 18.9 15 Sur 24 Sur 0 -- -- 63
2020-05-14 09:00:00 17.2 11 Sudoeste 21 Oeste 0 -- -- 70
2020-05-14 08:00:00 15.2 15 Oeste 22 Oeste 0 -- -- 72
2020-05-14 07:00:00 13.9 13 Oeste 18 Oeste 0 -- -- 73
2020-05-14 06:00:00 14 9 Noroeste 17 Noroeste 0 -- -- 68
2020-05-14 05:00:00 14 10 Noroeste 12 Noroeste 0 -- -- 73
2020-05-14 04:00:00 14.4 11 Noroeste 17 Oeste 0 -- -- 73
2020-05-14 03:00:00 14.8 13 Oeste 22 Sudoeste 0 -- -- 75
2020-05-14 02:00:00 15.4 15 Oeste 23 Oeste 0 -- -- 77
2020-05-14 01:00:00 15.6 15 Oeste 24 Oeste 0 -- -- 77
2020-05-14 00:00:00 16 12 Oeste 18 Sudoeste 0 -- -- 77
2020-05-13 23:00:00 16.9 8 Sudoeste 23 Sudoeste 0 -- -- 75
2020-05-13 22:00:00 17.4 10 Sudoeste 18 Sudoeste 0 -- -- 74
2020-05-13 21:00:00 17.7 14 Sudoeste 24 Sudoeste 0 -- -- 78
2020-05-13 20:00:00 18.4 12 Sudoeste 21 Sur 0 -- -- 76
2020-05-13 19:00:00 19.2 11 Sur 21 Sudeste 0 -- -- 67
2020-05-13 18:00:00 21.2 10 Este 20 Este 0 -- -- 64
2020-05-13 17:00:00 21 12 Este 22 Este 0 -- -- 55
2020-05-13 16:00:00 22.2 9 Sudeste 20 Este 0 -- -- 57
2020-05-13 15:00:00 20.4 8 Sudeste 32 Sudoeste 0 -- -- 66
2020-05-13 14:00:00 22 18 Sur 32 Sur 0 -- -- 61
2020-05-13 13:00:00 21.9 17 Sur 31 Sur 0 -- -- 62
2020-05-13 12:00:00 19.5 11 Sur 21 Sudoeste 0 -- -- 70
2020-05-13 11:00:00 19.7 9 Sudeste 17 Sudeste 0 -- -- 70
2020-05-13 10:00:00 17.9 6 Sudoeste 16 Sudoeste 0 -- -- 75
2020-05-13 09:00:00 17.4 9 Sudoeste 19 Sudoeste 0 -- -- 80
2020-05-13 08:00:00 16.2 13 Oeste 18 Oeste 0 -- -- 80
2020-05-13 07:00:00 15.7 12 Oeste 15 Oeste 0 -- -- 76
2020-05-13 06:00:00 15.6 9 Noroeste 14 Noroeste 0 -- -- 72
2020-05-13 05:00:00 15 10 Noroeste 16 Oeste 0 -- -- 70
2020-05-13 04:00:00 15 13 Oeste 18 Oeste 0 -- -- 76
2020-05-13 03:00:00 15.4 15 Oeste 26 Oeste 0 -- -- 78
2020-05-13 02:00:00 15.3 15 Oeste 22 Sudoeste 0 -- -- 76
2020-05-13 01:00:00 15.4 14 Oeste 22 Oeste 0 -- -- 78
2020-05-13 00:00:00 15.3 14 Oeste 19 Oeste 0 -- -- 76
2020-05-12 23:00:00 15.2 10 Oeste 14 Oeste 0 -- -- 81
2020-05-12 22:00:00 16 6 Oeste 8 Oeste 0 -- -- 82
2020-05-12 21:00:00 17.1 3 Sur 10 Sudeste 0 -- -- 76
2020-05-12 20:00:00 18.4 6 Sur 19 Sur 0 -- -- 73
2020-05-12 19:00:00 20.1 12 Sudoeste 24 Sur 0 -- -- 65
2020-05-12 18:00:00 19.7 13 Sudoeste 22 Sur 0 -- -- 63
2020-05-12 17:00:00 18.8 10 Sudoeste 18 Sudoeste 0 -- -- 68
2020-05-12 16:00:00 18.9 5 Sudoeste 13 Sudoeste 0 -- -- 65
2020-05-12 15:00:00 18.3 4 Sudoeste 16 Sur 0 -- -- 61
2020-05-12 14:00:00 18.5 10 Sur 15 Sudeste 0 -- -- 67
2020-05-12 13:00:00 18.3 6 Sur 21 Sur 0 -- -- 67
2020-05-12 12:00:00 18.9 12 Sudeste 27 Sudeste 0 -- -- 66
2020-05-12 11:00:00 19.9 14 Sur 28 Sur 0 -- -- 60
2020-05-12 10:00:00 18.7 14 Sudoeste 28 Sudoeste 0 -- -- 65
2020-05-12 09:00:00 17.7 19 Sudoeste 31 Sur 0 -- -- 71
2020-05-12 08:00:00 16 16 Oeste 26 Oeste 0 -- -- 73
2020-05-12 07:00:00 15.3 18 Oeste 26 Oeste 0 -- -- 71
2020-05-12 06:00:00 15.6 15 Oeste 24 Oeste 0 -- -- 79
2020-05-12 05:00:00 15.6 14 Oeste 25 Sudoeste 0 -- -- 78
2020-05-12 04:00:00 16.3 14 Sudoeste 27 Oeste 0 -- -- 80
2020-05-12 03:00:00 16.4 16 Sudoeste 24 Sudoeste 0 -- -- 81
2020-05-12 02:00:00 16.6 3 Sudoeste 11 Noroeste 0 -- -- 87
2020-05-12 01:00:00 16.7 5 Oeste 10 Oeste 0 -- -- 84
2020-05-12 00:00:00 17.3 6 Sudoeste 10 Sudoeste 0 -- -- 84
2020-05-11 23:00:00 17.7 6 Sudoeste 9 Sudoeste 0 -- -- 82
2020-05-11 22:00:00 18.1 3 Sudeste 9 Este 0 -- -- 83
2020-05-11 21:00:00 18.3 6 Este 10 Este 0 -- -- 83
2020-05-11 20:00:00 18.8 5 Este 12 Este 0 -- -- 81
2020-05-11 19:00:00 19.4 6 Este 19 Nordeste 0 -- -- 78
2020-05-11 18:00:00 20 11 Este 22 Este 0 -- -- 77
2020-05-11 17:00:00 22.8 12 Sudeste 26 Sudeste 0 -- -- 65
2020-05-11 16:00:00 21.6 16 Sur 30 Sur 0 -- -- 69
2020-05-11 15:00:00 21.6 19 Sur 30 Sudoeste 0 -- -- 68
2020-05-11 14:00:00 20.6 16 Sur 24 Sur 0 -- -- 71
2020-05-11 13:00:00 20.9 16 Sur 24 Sur 0 -- -- 69
2020-05-11 12:00:00 20.6 12 Sur 22 Sur 0 -- -- 70
2020-05-11 11:00:00 18.9 12 Sur 19 Sur 0 -- -- 77
2020-05-11 10:00:00 18.7 10 Sur 16 Sur 0 -- -- 77
2020-05-11 09:00:00 17.7 7 Oeste 10 Oeste 0 -- -- 79
2020-05-11 08:00:00 15.8 9 Oeste 13 Oeste 0 -- -- 84
2020-05-11 07:00:00 15.7 12 Oeste 22 Sudoeste 0 -- -- 82
2020-05-11 06:00:00 16 14 Oeste 18 Oeste 0 -- -- 78
2020-05-11 05:00:00 16.4 11 Oeste 21 Oeste 0 -- -- 81
2020-05-11 04:00:00 16.4 15 Oeste 26 Oeste 0 -- -- 82
2020-05-11 03:00:00 15.8 8 Oeste 14 Noroeste 0 -- -- 78
2020-05-11 02:00:00 16.2 10 Noroeste 13 Noroeste 0 -- -- 76
2020-05-11 01:00:00 16.3 9 Noroeste 13 Noroeste 0 -- -- 77
2020-05-11 00:00:00 16.6 8 Noroeste 10 Noroeste 0 -- -- 76
2020-05-10 23:00:00 16.7 3 Oeste 22 Sudoeste 0 -- -- 80
2020-05-10 22:00:00 17.2 8 Sudoeste 12 Sudoeste 0 -- -- 82
2020-05-10 21:00:00 18.1 5 Sudoeste 12 Sudeste 0 -- -- 80
2020-05-10 20:00:00 19.4 8 Sur 16 Sur 0 -- -- 74
2020-05-10 19:00:00 20.8 12 Sur 23 Sur 0 -- -- 67
2020-05-10 18:00:00 22 13 Sur 23 Sur 0 -- -- 64
2020-05-10 17:00:00 22.4 15 Sur 27 Sur 0 -- -- 62
2020-05-10 16:00:00 22.4 17 Sur 30 Sur 0 -- -- 63
2020-05-10 15:00:00 21.4 11 Sur 21 Sudoeste 0 -- -- 67
2020-05-10 14:00:00 19.3 8 Sudoeste 16 Sur 0 -- -- 74
2020-05-10 13:00:00 18.9 6 Sudeste 13 Este 0 -- -- 77
2020-05-10 12:00:00 19 7 Este 16 Sudeste 0 -- -- 77
2020-05-10 11:00:00 19.4 10 Sur 21 Sudoeste 0 -- -- 76
2020-05-10 10:00:00 18.8 13 Sudoeste 19 Sudoeste 0 -- -- 75
2020-05-10 09:00:00 18.3 6 Sur 15 Oeste 0 -- -- 78
2020-05-10 08:00:00 16.2 7 Oeste 19 Oeste 0 -- -- 76
2020-05-10 07:00:00 15 12 Oeste 16 Oeste 0 -- -- 81
2020-05-10 06:00:00 15.1 11 Oeste 14 Oeste 0 -- -- 84
2020-05-10 05:00:00 15.1 6 Noroeste 13 Noroeste 0 -- -- 82
2020-05-10 04:00:00 15.3 10 Noroeste 15 Noroeste 0 -- -- 82
2020-05-10 03:00:00 16.4 6 Oeste 10 Oeste 0 -- -- 84
2020-05-10 02:00:00 17 7 Oeste 12 Oeste 0 -- -- 83
2020-05-10 01:00:00 16.3 8 Noroeste 13 Noroeste 0 -- -- 78
2020-05-10 00:00:00 16 10 Noroeste 14 Noroeste 0 -- -- 85
2020-05-09 23:00:00 16.4 6 Oeste 13 Oeste 0 -- -- 85
2020-05-09 22:00:00 17.4 9 Sudoeste 12 Oeste 0 -- -- 82
2020-05-09 21:00:00 18.2 6 Sur 12 Sur 0 -- -- 80
2020-05-09 20:00:00 19.1 8 Sur 19 Sudoeste 0 -- -- 78
2020-05-09 19:00:00 20.7 13 Sur 22 Sur 0 -- -- 71
2020-05-09 18:00:00 20.8 10 Sur 22 Sur 0 -- -- 72
2020-05-09 17:00:00 22.1 12 Sur 22 Sur 0 -- -- 66
2020-05-09 16:00:00 22 11 Sudeste 26 Sur 0 -- -- 66
2020-05-09 15:00:00 21 9 Sur 24 Sur 0 -- -- 71
2020-05-09 14:00:00 22.3 13 Sudeste 24 Sudeste 0 -- -- 65
2020-05-09 13:00:00 22.9 9 Sudeste 23 Sudeste 0 -- -- 63
2020-05-09 12:00:00 21.9 12 Sudeste 24 Sur 0 -- -- 67
2020-05-09 11:00:00 20.3 8 Sur 19 Sudeste 0 -- -- 72
2020-05-09 10:00:00 19.3 7 Sur 14 Sudoeste 0 -- -- 74
2020-05-09 09:00:00 17 6 Sur 15 Sudoeste 0 -- -- 85
2020-05-09 08:00:00 15 9 Oeste 14 Oeste 0 -- -- 82
2020-05-09 07:00:00 14.6 10 Oeste 18 Oeste 0 -- -- 84
2020-05-09 06:00:00 15 12 Oeste 19 Oeste 0 -- -- 81
2020-05-09 05:00:00 15.1 14 Oeste 22 Oeste 0 -- -- 80
2020-05-09 04:00:00 15.5 17 Oeste 25 Oeste 0 -- -- 82
2020-05-09 03:00:00 15.1 18 Oeste 22 Oeste 0 -- -- 76
2020-05-09 02:00:00 15.1 10 Oeste 17 Oeste 0 -- -- 77
2020-05-09 01:00:00 15.3 10 Noroeste 18 Oeste 0 -- -- 75
2020-05-09 00:00:00 15.8 13 Oeste 19 Oeste 0 -- -- 80
2020-05-08 23:00:00 15.4 11 Oeste 14 Oeste 0 -- -- 82
2020-05-08 22:00:00 16.5 6 Oeste 13 Sudoeste 0 -- -- 87
2020-05-08 21:00:00 17.3 6 Sudoeste 10 Sudeste 0 -- -- 84
2020-05-08 20:00:00 17.8 3 Este 14 Este 0 -- -- 83
2020-05-08 19:00:00 18.4 9 Este 15 Este 0 -- -- 81
2020-05-08 18:00:00 19.3 8 Este 17 Sudeste 0 -- -- 76
2020-05-08 17:00:00 19.9 8 Este 17 Sudeste 0 -- -- 74
2020-05-08 16:00:00 21.2 9 Sudeste 17 Sudeste 0 -- -- 69
2020-05-08 15:00:00 20.4 8 Este 13 Sudeste 0 -- -- 71
2020-05-08 14:00:00 19 9 Sur 17 Sudeste 0 -- -- 74
2020-05-08 13:00:00 20.1 8 Este 16 Sudeste 0 -- -- 70
2020-05-08 12:00:00 19.7 7 Sur 18 Sudeste 0 -- -- 74
2020-05-08 11:00:00 20.1 7 Este 16 Este 0 -- -- 71
2020-05-08 10:00:00 18.8 2 Nordeste 9 Este 0 -- -- 70
2020-05-08 09:00:00 18.1 4 Nordeste 8 Noroeste 0 -- -- 69
2020-05-08 08:00:00 14.3 7 Noroeste 14 Oeste 0 -- -- 75
2020-05-08 07:00:00 14.1 10 Oeste 15 Oeste 0 -- -- 82
2020-05-08 06:00:00 13.7 7 Oeste 15 Noroeste 0 -- -- 81
2020-05-08 05:00:00 14 9 Noroeste 13 Noroeste 0 -- -- 81
2020-05-08 04:00:00 13.8 7 Noroeste 12 Oeste 0 -- -- 81
2020-05-08 03:00:00 14.6 7 Noroeste 12 Noroeste 0 -- -- 78
2020-05-08 02:00:00 14.8 4 Nordeste 18 Oeste 0 -- -- 80
2020-05-08 01:00:00 15.1 9 Oeste 17 Noroeste 0 -- -- 80
2020-05-08 00:00:00 15.4 3 Sudoeste 11 Oeste 0 -- -- 86
2020-05-07 23:00:00 16.5 8 Sudoeste 14 Sudoeste 0 -- -- 83
2020-05-07 22:00:00 16.6 3 Sudoeste 10 Sudoeste 0 -- -- 85
2020-05-07 21:00:00 16.6 4 Sudoeste 17 Oeste 0 -- -- 84
2020-05-07 20:00:00 17.1 11 Oeste 21 Oeste 0 -- -- 77
2020-05-07 19:00:00 17.9 11 Sudoeste 21 Sudoeste 0 -- -- 80
2020-05-07 18:00:00 16.7 13 Oeste 20 Oeste 0.2 -- -- 87
2020-05-07 17:00:00 16.3 9 Noroeste 14 Oeste 0 -- -- 89
2020-05-07 16:00:00 16.3 5 Noroeste 13 Este 2 -- -- 89
2020-05-07 15:00:00 16.6 5 Este 18 Este 0.8 -- -- 90
2020-05-07 14:00:00 17.1 13 Este 19 Este 0 -- -- 86
2020-05-07 13:00:00 17.4 12 Este 23 Este 0 -- -- 81
2020-05-07 12:00:00 18.6 13 Este 23 Este 0 -- -- 72
2020-05-07 11:00:00 20.2 8 Este 22 Nordeste 0 -- -- 71
2020-05-07 10:00:00 18.5 7 Sudoeste 17 Oeste 0 -- -- 71
2020-05-07 09:00:00 -- 12 Sudoeste 15 Sudoeste -- -- -- --
2020-05-07 08:00:00 14.5 9 Noroeste 17 Noroeste 0 -- -- 83
2020-05-07 07:00:00 13.7 9 Noroeste 14 Noroeste 0 -- -- 86
2020-05-07 06:00:00 14.2 10 Oeste 15 Oeste 0 -- -- 89
2020-05-07 05:00:00 14.7 9 Oeste 12 Oeste 0 -- -- 90
2020-05-07 04:00:00 15.5 6 Sur 18 Noroeste 1 -- -- 90
2020-05-07 03:00:00 15.3 3 Norte 13 Noroeste 0.2 -- -- 92
2020-05-07 02:00:00 15.4 7 Nordeste 13 Noroeste 0 -- -- 88
2020-05-07 01:00:00 15.5 5 Noroeste 13 Oeste 0 -- -- 88
2020-05-07 00:00:00 15.8 4 Nordeste 18 Nordeste 0 -- -- 86
2020-05-06 23:00:00 16 8 Este 17 Este 0 -- -- 92
2020-05-06 22:00:00 16 10 Este 20 Este 0 -- -- 94
2020-05-06 21:00:00 15.9 10 Nordeste 20 Este 0 -- -- 93
2020-05-06 20:00:00 15.9 12 Nordeste 22 Nordeste 1.2 -- -- 92
2020-05-06 19:00:00 16.6 13 Nordeste 24 Nordeste 0 -- -- 92
2020-05-06 18:00:00 17.5 15 Nordeste 26 Este 0 -- -- 82
2020-05-06 17:00:00 17.5 13 Nordeste 24 Este 0 -- -- 85
2020-05-06 16:00:00 18.3 14 Este 27 Este 0 -- -- 79
2020-05-06 15:00:00 19 19 Nordeste 33 Este 0 -- -- 76
2020-05-06 14:00:00 20.2 19 Nordeste 28 Este 0 -- -- 70
2020-05-06 13:00:00 18.9 18 Este 29 Este 0 -- -- 74
2020-05-06 12:00:00 19.4 17 Este 26 Nordeste 0 -- -- 73
2020-05-06 11:00:00 19.1 13 Este 22 Este 0 -- -- 73
2020-05-06 10:00:00 18.4 12 Nordeste 20 Nordeste 0 -- -- 70
2020-05-06 09:00:00 16.5 6 Norte 12 Noroeste 0 -- -- 70
2020-05-06 08:00:00 14.4 8 Norte 14 Norte 0 -- -- 68
2020-05-06 07:00:00 14.1 7 Norte 12 Norte 0 -- -- 72
2020-05-06 06:00:00 14.6 8 Norte 21 Norte 0 -- -- 72
2020-05-06 05:00:00 14.5 10 Norte 16 Norte 0 -- -- 71
2020-05-06 04:00:00 14.5 8 Norte 17 Norte 0 -- -- 69
2020-05-06 03:00:00 14.9 10 Norte 16 Nordeste 0 -- -- 71
2020-05-06 02:00:00 15.2 10 Norte 23 Nordeste 0 -- -- 72
2020-05-06 01:00:00 15.3 12 Norte 23 Norte 0 -- -- 71
2020-05-06 00:00:00 15.3 10 Norte 23 Nordeste 0 -- -- 71
2020-05-05 23:00:00 15.3 7 Norte 13 Norte 0 -- -- 74
2020-05-05 22:00:00 16 7 Nordeste 21 Nordeste 0 -- -- 80
2020-05-05 21:00:00 16.7 10 Nordeste 23 Nordeste 0 -- -- 80
2020-05-05 20:00:00 17.6 11 Nordeste 24 Este 0 -- -- 75
2020-05-05 19:00:00 18.9 18 Nordeste 28 Este 0 -- -- 68
2020-05-05 18:00:00 19.3 16 Este 28 Nordeste 0 -- -- 66
2020-05-05 17:00:00 20.8 18 Nordeste 34 Este 0 -- -- 62
2020-05-05 16:00:00 22 20 Nordeste 38 Nordeste 0 -- -- 59
2020-05-05 15:00:00 22 20 Este 33 Este 0 -- -- 59
2020-05-05 14:00:00 22 17 Nordeste 30 Nordeste 0 -- -- 58
2020-05-05 13:00:00 22 12 Este 22 Este 0 -- -- 58
2020-05-05 12:00:00 20.3 9 Este 19 Este 0 -- -- 65
2020-05-05 11:00:00 20 5 Sudoeste 15 Sudeste 0 -- -- 64
2020-05-05 10:00:00 18.1 6 Sur 12 Sudoeste 0 -- -- 72
2020-05-05 09:00:00 16.6 0 Calma 12 Noroeste 0 -- -- 80
2020-05-05 08:00:00 14.6 8 Noroeste 14 Oeste 0 -- -- 82
2020-05-05 07:00:00 14 10 Oeste 14 Oeste 0 -- -- 86
2020-05-05 06:00:00 13.5 8 Noroeste 12 Noroeste 0 -- -- 83
2020-05-05 05:00:00 14.2 4 Oeste 12 Noroeste 0 -- -- 85
2020-05-05 04:00:00 14 8 Oeste 17 Oeste 0 -- -- 82
2020-05-05 03:00:00 14.6 13 Oeste 18 Oeste 0 -- -- 87
2020-05-05 02:00:00 15.5 7 Sudoeste 12 Oeste 0 -- -- 90
2020-05-05 01:00:00 15.6 7 Sudoeste 10 Sudoeste 0 -- -- 89
2020-05-05 00:00:00 16.2 3 Este 8 Este 0 -- -- 88
2020-05-04 23:00:00 16.4 3 Oeste 13 Noroeste 0 -- -- 90
2020-05-04 22:00:00 16.2 2 Oeste 5 Norte 0 -- -- 91
2020-05-04 21:00:00 16.1 4 Norte 10 Noroeste 0.2 -- -- 93
2020-05-04 20:00:00 16.2 5 Norte 12 Norte 0 -- -- 92
2020-05-04 19:00:00 16.6 6 Norte 12 Nordeste 0.2 -- -- 92
2020-05-04 18:00:00 16.9 6 Norte 10 Norte 0.2 -- -- 92
2020-05-04 17:00:00 16.9 6 Nordeste 17 Nordeste 0.4 -- -- 92
2020-05-04 16:00:00 17.3 13 Este 19 Este 0.6 -- -- 91
2020-05-04 15:00:00 17.8 11 Este 19 Nordeste 0 -- -- 89
2020-05-04 14:00:00 18.4 9 Nordeste 17 Este 0 -- -- 83
2020-05-04 13:00:00 18.9 8 Este 17 Este 0 -- -- 77
2020-05-04 12:00:00 19.1 9 Sudeste 18 Sudeste 0 -- -- 78
2020-05-04 11:00:00 19.5 9 Sudeste 20 Sudeste 0 -- -- 75
2020-05-04 10:00:00 21.1 9 Sudeste 18 Sudeste 0 -- -- 67
2020-05-04 09:00:00 19 3 Sur 12 Noroeste 0 -- -- 72
2020-05-04 08:00:00 15.4 5 Noroeste 13 Noroeste 0 -- -- 80
2020-05-04 07:00:00 15.7 3 Noroeste 8 Noroeste 0 -- -- 80
2020-05-04 06:00:00 15.9 5 Noroeste 12 Noroeste 0 -- -- 80
2020-05-04 05:00:00 15.6 8 Noroeste 13 Noroeste 0 -- -- 82
2020-05-04 04:00:00 15.4 5 Noroeste 8 Noroeste 0 -- -- 86
2020-05-04 03:00:00 15.3 5 Noroeste 10 Noroeste 0 -- -- 90
2020-05-04 02:00:00 15.3 4 Norte 8 Este 0 -- -- 89
2020-05-04 01:00:00 15.6 0 Calma 10 Noroeste 0 -- -- 89
2020-05-04 00:00:00 16.2 0 Calma 5 Oeste 0 -- -- 90
2020-05-03 23:00:00 16.4 0 Calma 5 Este 0 -- -- 88
2020-05-03 22:00:00 17.1 0 Calma 11 Sudeste 0 -- -- 85
2020-05-03 21:00:00 18.6 7 Sur 11 Sur 0 -- -- 79
2020-05-03 20:00:00 20.5 5 Sudeste 12 Sur 0 -- -- 70
2020-05-03 19:00:00 22 9 Este 24 Este 0 -- -- 65
2020-05-03 18:00:00 23.6 15 Este 28 Nordeste 0 -- -- 60
2020-05-03 17:00:00 27 16 Nordeste 22 Norte 0 -- -- 47
2020-05-03 16:00:00 27.1 9 Sudeste 22 Sur 0 -- -- 41
2020-05-03 15:00:00 25.1 4 Norte 29 Sur 0 -- -- 51
2020-05-03 14:00:00 23.8 13 Sur 27 Sudoeste 0 -- -- 57
2020-05-03 13:00:00 22.9 13 Sur 28 Sur 0 -- -- 59
2020-05-03 12:00:00 20.9 14 Sur 25 Sur 0 -- -- 66
2020-05-03 11:00:00 18.8 9 Sur 16 Sur 0 -- -- 74
2020-05-03 10:00:00 17 5 Sudoeste 20 Sudoeste 0 -- -- 80
2020-05-03 09:00:00 15.2 9 Oeste 17 Sudoeste 0 -- -- 87
2020-05-03 08:00:00 13.6 8 Noroeste 11 Noroeste 0 -- -- 88
2020-05-03 07:00:00 13.4 7 Noroeste 12 Noroeste 0 -- -- 87
2020-05-03 06:00:00 13.1 7 Noroeste 10 Noroeste 0 -- -- 80
2020-05-03 05:00:00 13.4 6 Oeste 12 Oeste 0 -- -- 79
2020-05-03 04:00:00 13.6 4 Oeste 11 Noroeste 0 -- -- 83
2020-05-03 03:00:00 13.5 6 Noroeste 12 Noroeste 0 -- -- 87
2020-05-03 02:00:00 13.7 9 Noroeste 12 Noroeste 0 -- -- 86
2020-05-03 01:00:00 14.7 6 Oeste 10 Oeste 0 -- -- 90
2020-05-03 00:00:00 15.1 4 Noroeste 6 Noroeste 0 -- -- 90